ETD481 WIMM-OMAA
Flight info
| Callsign | ETD481 |
|---|---|
| Flight time | N/A |
| Altitude | 34000 |
| Route | MAIMU DCT MEMAK N563 XOKRO/N0450F360 N563 KATBI/N0446F380 N563 TULBU P558 SODEX N563 NOBTO |
| Aircraft | A21N/M-SDE2E3FGHIJ1RWXY/LB1 |
Departure
| Time | 2026-04-26 13:33 |
|---|---|
| Airport | Kualanamu International Airport (WIMM) |
Arrival
| Time | N/A |
|---|---|
| Airport | Zayed International Airport (OMAA) |
| Time | Latitude | Longitude | Altitude | Speed | Heading |
|---|---|---|---|---|---|
| 2026-04-26 12:34 | 3.63766 | 98.87968 | 32 ft | 0 kts | 230° |
| 2026-04-26 13:13 | 3.63775 | 98.87978 | 32 ft | 2 kts | 220° |
| 2026-04-26 13:14 | 3.63786 | 98.87988 | 32 ft | 2 kts | 225° |
| 2026-04-26 13:14 | 3.63797 | 98.87999 | 32 ft | 2 kts | 224° |
| 2026-04-26 13:14 | 3.63808 | 98.88010 | 32 ft | 2 kts | 224° |
| 2026-04-26 13:14 | 3.63817 | 98.88018 | 32 ft | 1 kts | 223° |
| 2026-04-26 13:15 | 3.63820 | 98.88024 | 32 ft | 1 kts | 285° |
| 2026-04-26 13:15 | 3.63817 | 98.88028 | 32 ft | 1 kts | 322° |
| 2026-04-26 13:15 | 3.63813 | 98.88032 | 32 ft | 0 kts | 316° |
| 2026-04-26 13:18 | 3.63820 | 98.88025 | 32 ft | 1 kts | 317° |
| 2026-04-26 13:18 | 3.63830 | 98.88017 | 32 ft | 2 kts | 316° |
| 2026-04-26 13:18 | 3.63875 | 98.87973 | 32 ft | 7 kts | 316° |
| 2026-04-26 13:19 | 3.63917 | 98.87962 | 32 ft | 6 kts | 29° |
| 2026-04-26 13:19 | 3.63951 | 98.87994 | 32 ft | 6 kts | 45° |
| 2026-04-26 13:19 | 3.63985 | 98.88028 | 33 ft | 6 kts | 45° |
| 2026-04-26 13:19 | 3.64011 | 98.88053 | 33 ft | 4 kts | 44° |
| 2026-04-26 13:20 | 3.64028 | 98.88070 | 34 ft | 2 kts | 45° |
| 2026-04-26 13:20 | 3.64042 | 98.88084 | 34 ft | 2 kts | 44° |
| 2026-04-26 13:20 | 3.64055 | 98.88097 | 35 ft | 2 kts | 45° |
| 2026-04-26 13:20 | 3.64071 | 98.88113 | 35 ft | 4 kts | 45° |
| 2026-04-26 13:21 | 3.64098 | 98.88139 | 36 ft | 6 kts | 32° |
| 2026-04-26 13:21 | 3.64126 | 98.88142 | 37 ft | 6 kts | 351° |
| 2026-04-26 13:21 | 3.64176 | 98.88104 | 37 ft | 8 kts | 315° |
| 2026-04-26 13:21 | 3.64224 | 98.88057 | 36 ft | 10 kts | 315° |
| 2026-04-26 13:22 | 3.64277 | 98.88004 | 35 ft | 10 kts | 316° |
| 2026-04-26 13:22 | 3.64279 | 98.87938 | 33 ft | 11 kts | 226° |
| 2026-04-26 13:22 | 3.64218 | 98.87877 | 31 ft | 13 kts | 225° |
| 2026-04-26 13:22 | 3.64150 | 98.87809 | 29 ft | 13 kts | 223° |
| 2026-04-26 13:23 | 3.64082 | 98.87743 | 29 ft | 13 kts | 225° |
| 2026-04-26 13:23 | 3.64018 | 98.87679 | 29 ft | 12 kts | 224° |
| 2026-04-26 13:23 | 3.63959 | 98.87621 | 30 ft | 11 kts | 225° |
| 2026-04-26 13:23 | 3.63906 | 98.87569 | 30 ft | 10 kts | 225° |
| 2026-04-26 13:24 | 3.63866 | 98.87529 | 33 ft | 5 kts | 225° |
| 2026-04-26 13:24 | 3.63841 | 98.87505 | 35 ft | 4 kts | 224° |
| 2026-04-26 13:24 | 3.63826 | 98.87490 | 36 ft | 1 kts | 224° |
| 2026-04-26 13:24 | 3.63824 | 98.87488 | 36 ft | 0 kts | 224° |
| 2026-04-26 13:25 | 3.63820 | 98.87484 | 36 ft | 1 kts | 225° |
| 2026-04-26 13:25 | 3.63808 | 98.87472 | 36 ft | 3 kts | 226° |
| 2026-04-26 13:25 | 3.63788 | 98.87452 | 37 ft | 4 kts | 224° |
| 2026-04-26 13:25 | 3.63759 | 98.87423 | 38 ft | 6 kts | 226° |
| 2026-04-26 13:26 | 3.63721 | 98.87386 | 40 ft | 7 kts | 224° |
| 2026-04-26 13:26 | 3.63685 | 98.87352 | 41 ft | 6 kts | 224° |
| 2026-04-26 13:26 | 3.63658 | 98.87325 | 42 ft | 4 kts | 224° |
| 2026-04-26 13:26 | 3.63639 | 98.87306 | 43 ft | 3 kts | 226° |
| 2026-04-26 13:27 | 3.63622 | 98.87289 | 44 ft | 4 kts | 227° |
| 2026-04-26 13:27 | 3.63609 | 98.87263 | 45 ft | 3 kts | 261° |
| 2026-04-26 13:27 | 3.63615 | 98.87233 | 46 ft | 5 kts | 293° |
| 2026-04-26 13:27 | 3.63637 | 98.87188 | 46 ft | 8 kts | 265° |
| 2026-04-26 13:28 | 3.63605 | 98.87144 | 47 ft | 7 kts | 226° |
| 2026-04-26 13:28 | 3.63564 | 98.87103 | 47 ft | 9 kts | 226° |
| 2026-04-26 13:28 | 3.63513 | 98.87051 | 47 ft | 11 kts | 225° |
| 2026-04-26 13:28 | 3.63448 | 98.86987 | 46 ft | 14 kts | 225° |
| 2026-04-26 13:29 | 3.63373 | 98.86912 | 45 ft | 16 kts | 226° |
| 2026-04-26 13:29 | 3.63317 | 98.86854 | 42 ft | 18 kts | 226° |
| 2026-04-26 13:29 | 3.63188 | 98.86726 | 38 ft | 20 kts | 224° |
| 2026-04-26 13:29 | 3.63084 | 98.86621 | 34 ft | 21 kts | 225° |
| 2026-04-26 13:30 | 3.62978 | 98.86513 | 33 ft | 21 kts | 225° |
| 2026-04-26 13:30 | 3.62878 | 98.86413 | 35 ft | 19 kts | 225° |
| 2026-04-26 13:30 | 3.62785 | 98.86320 | 37 ft | 17 kts | 225° |
| 2026-04-26 13:30 | 3.62702 | 98.86237 | 40 ft | 15 kts | 225° |
| 2026-04-26 13:31 | 3.62630 | 98.86165 | 43 ft | 13 kts | 224° |
| 2026-04-26 13:31 | 3.62569 | 98.86105 | 46 ft | 11 kts | 225° |
| 2026-04-26 13:31 | 3.62518 | 98.86047 | 48 ft | 10 kts | 242° |
| 2026-04-26 13:31 | 3.62512 | 98.85977 | 49 ft | 10 kts | 284° |
| 2026-04-26 13:32 | 3.62556 | 98.85925 | 49 ft | 10 kts | 332° |
| 2026-04-26 13:32 | 3.62617 | 98.85898 | 47 ft | 8 kts | 20° |
| 2026-04-26 13:32 | 3.62665 | 98.85941 | 45 ft | 10 kts | 45° |
| 2026-04-26 13:32 | 3.62741 | 98.86018 | 43 ft | 33 kts | 46° |
| 2026-04-26 13:33 | 3.63079 | 98.86360 | 33 ft | 102 kts | 45° |
| 2026-04-26 13:33 | 3.63724 | 98.86987 | 43 ft | 156 kts | 46° |
| 2026-04-26 13:33 | 3.64609 | 98.87846 | 214 ft | 185 kts | 44° |
| 2026-04-26 13:33 | 3.65555 | 98.88697 | 829 ft | 186 kts | 37° |
| 2026-04-26 13:34 | 3.66778 | 98.89067 | 1296 ft | 196 kts | 354° |
| 2026-04-26 13:34 | 3.68020 | 98.88414 | 1575 ft | 214 kts | 314° |
| 2026-04-26 13:34 | 3.68988 | 98.87217 | 1933 ft | 227 kts | 307° |
| 2026-04-26 13:34 | 3.69649 | 98.86353 | 2108 ft | 241 kts | 307° |
| 2026-04-26 13:35 | 3.71109 | 98.84489 | 2540 ft | 266 kts | 309° |
| 2026-04-26 13:35 | 3.72291 | 98.83031 | 3034 ft | 277 kts | 309° |
| 2026-04-26 13:35 | 3.73523 | 98.81535 | 3749 ft | 280 kts | 310° |
| 2026-04-26 13:35 | 3.74760 | 98.80042 | 4465 ft | 282 kts | 310° |
| 2026-04-26 13:36 | 3.76022 | 98.78526 | 5167 ft | 284 kts | 310° |
| 2026-04-26 13:36 | 3.77161 | 98.76924 | 5846 ft | 287 kts | 295° |
| 2026-04-26 13:36 | 3.77788 | 98.75033 | 6527 ft | 290 kts | 284° |
| 2026-04-26 13:36 | 3.78258 | 98.73051 | 7168 ft | 293 kts | 283° |
| 2026-04-26 13:37 | 3.78732 | 98.71051 | 7802 ft | 297 kts | 284° |
| 2026-04-26 13:37 | 3.79239 | 98.69038 | 8415 ft | 300 kts | 285° |
| 2026-04-26 13:37 | 3.79774 | 98.67027 | 9000 ft | 304 kts | 285° |
| 2026-04-26 13:37 | 3.80340 | 98.64967 | 9597 ft | 307 kts | 286° |
| 2026-04-26 13:38 | 3.80914 | 98.62914 | 10162 ft | 310 kts | 286° |
| 2026-04-26 13:38 | 3.81506 | 98.60827 | 10529 ft | 321 kts | 287° |
| 2026-04-26 13:38 | 3.82136 | 98.58624 | 10788 ft | 335 kts | 287° |
| 2026-04-26 13:38 | 3.82789 | 98.56348 | 11039 ft | 349 kts | 287° |
| 2026-04-26 13:39 | 3.83472 | 98.53968 | 11278 ft | 363 kts | 287° |
| 2026-04-26 13:39 | 3.84190 | 98.51472 | 11588 ft | 374 kts | 287° |
| 2026-04-26 13:39 | 3.84909 | 98.48969 | 12067 ft | 378 kts | 287° |
| 2026-04-26 13:39 | 3.85637 | 98.46433 | 12607 ft | 381 kts | 287° |
| 2026-04-26 13:40 | 3.86369 | 98.43885 | 13133 ft | 383 kts | 287° |
| 2026-04-26 13:40 | 3.87105 | 98.41322 | 13635 ft | 386 kts | 287° |
| 2026-04-26 13:40 | 3.87845 | 98.38742 | 14091 ft | 390 kts | 287° |
| 2026-04-26 13:40 | 3.88600 | 98.36108 | 14544 ft | 393 kts | 287° |
| 2026-04-26 13:41 | 3.89351 | 98.33491 | 14978 ft | 397 kts | 287° |
| 2026-04-26 13:41 | 3.90122 | 98.30805 | 15416 ft | 400 kts | 287° |
| 2026-04-26 13:41 | 3.90885 | 98.28149 | 15831 ft | 403 kts | 287° |
| 2026-04-26 13:41 | 3.91666 | 98.25426 | 16255 ft | 406 kts | 287° |
| 2026-04-26 13:42 | 3.92440 | 98.22729 | 16663 ft | 409 kts | 287° |
| 2026-04-26 13:42 | 3.93233 | 98.19964 | 17067 ft | 413 kts | 287° |
| 2026-04-26 13:42 | 3.94026 | 98.17197 | 17457 ft | 416 kts | 287° |
| 2026-04-26 13:42 | 3.94827 | 98.14405 | 17860 ft | 418 kts | 287° |
| 2026-04-26 13:43 | 3.95632 | 98.11602 | 18266 ft | 420 kts | 287° |
| 2026-04-26 13:43 | 3.96436 | 98.08796 | 18653 ft | 422 kts | 287° |
| 2026-04-26 13:43 | 3.97250 | 98.05959 | 19044 ft | 424 kts | 287° |
| 2026-04-26 13:43 | 3.98064 | 98.03118 | 19415 ft | 426 kts | 287° |
| 2026-04-26 13:44 | 3.98886 | 98.00255 | 19789 ft | 428 kts | 287° |
| 2026-04-26 13:44 | 3.99714 | 97.97362 | 20168 ft | 430 kts | 287° |
| 2026-04-26 13:44 | 4.00538 | 97.94486 | 20534 ft | 431 kts | 287° |
| 2026-04-26 13:44 | 4.01361 | 97.91614 | 20897 ft | 433 kts | 287° |
| 2026-04-26 13:45 | 4.02191 | 97.88715 | 21240 ft | 435 kts | 287° |
| 2026-04-26 13:45 | 4.03027 | 97.85796 | 21582 ft | 436 kts | 287° |
| 2026-04-26 13:45 | 4.03858 | 97.82893 | 21917 ft | 438 kts | 287° |
| 2026-04-26 13:45 | 4.04607 | 97.80275 | 22202 ft | 440 kts | 287° |
| 2026-04-26 13:46 | 4.05200 | 97.78203 | 22421 ft | 441 kts | 287° |
| 2026-04-26 13:46 | 4.05923 | 97.75677 | 22702 ft | 443 kts | 287° |
| 2026-04-26 13:46 | 4.06716 | 97.72906 | 23002 ft | 444 kts | 287° |
| 2026-04-26 13:46 | 4.07563 | 97.69944 | 23317 ft | 446 kts | 287° |
| 2026-04-26 13:47 | 4.08427 | 97.66924 | 23646 ft | 447 kts | 287° |
| 2026-04-26 13:47 | 4.09242 | 97.64075 | 23948 ft | 449 kts | 287° |
| 2026-04-26 13:47 | 4.09968 | 97.61535 | 24207 ft | 450 kts | 287° |
| 2026-04-26 13:47 | 4.10762 | 97.58756 | 24491 ft | 452 kts | 287° |
| 2026-04-26 13:48 | 4.11634 | 97.55708 | 24803 ft | 453 kts | 287° |
| 2026-04-26 13:48 | 4.12503 | 97.52669 | 25098 ft | 454 kts | 287° |
| 2026-04-26 13:48 | 4.13368 | 97.49642 | 25386 ft | 456 kts | 287° |
| 2026-04-26 13:48 | 4.14242 | 97.46583 | 25678 ft | 457 kts | 287° |
| 2026-04-26 13:49 | 4.15112 | 97.43538 | 25932 ft | 459 kts | 287° |
| 2026-04-26 13:49 | 4.16000 | 97.40430 | 26178 ft | 461 kts | 287° |
| 2026-04-26 13:49 | 4.16881 | 97.37346 | 26440 ft | 463 kts | 287° |
| 2026-04-26 13:49 | 4.17768 | 97.34241 | 26710 ft | 463 kts | 287° |
| 2026-04-26 13:50 | 4.18647 | 97.31162 | 26943 ft | 465 kts | 287° |
| 2026-04-26 13:50 | 4.19534 | 97.28053 | 27167 ft | 467 kts | 287° |
| 2026-04-26 13:50 | 4.20430 | 97.24915 | 27390 ft | 468 kts | 287° |
| 2026-04-26 13:50 | 4.21333 | 97.21756 | 27622 ft | 469 kts | 287° |
| 2026-04-26 13:51 | 4.22227 | 97.18619 | 27848 ft | 471 kts | 287° |
| 2026-04-26 13:51 | 4.23115 | 97.15508 | 28071 ft | 472 kts | 287° |
| 2026-04-26 13:51 | 4.24024 | 97.12322 | 28292 ft | 473 kts | 287° |
| 2026-04-26 13:51 | 4.24930 | 97.09143 | 28497 ft | 474 kts | 287° |
| 2026-04-26 13:52 | 4.25832 | 97.05979 | 28709 ft | 475 kts | 287° |
| 2026-04-26 13:52 | 4.26736 | 97.02813 | 28912 ft | 476 kts | 287° |
| 2026-04-26 13:52 | 4.27650 | 96.99608 | 29107 ft | 478 kts | 287° |
| 2026-04-26 13:52 | 4.28555 | 96.96434 | 29289 ft | 479 kts | 287° |
| 2026-04-26 13:53 | 4.29467 | 96.93232 | 29470 ft | 481 kts | 287° |
| 2026-04-26 13:53 | 4.30388 | 96.89999 | 29645 ft | 482 kts | 287° |
| 2026-04-26 13:53 | 4.31312 | 96.86757 | 29877 ft | 482 kts | 286° |
| 2026-04-26 13:53 | 4.32222 | 96.83561 | 30150 ft | 481 kts | 286° |
| 2026-04-26 13:54 | 4.33143 | 96.80324 | 30413 ft | 480 kts | 286° |
| 2026-04-26 13:54 | 4.34055 | 96.77138 | 30657 ft | 480 kts | 287° |
| 2026-04-26 13:54 | 4.35080 | 96.73975 | 30901 ft | 479 kts | 290° |
| 2026-04-26 13:55 | 4.37612 | 96.67812 | 31369 ft | 478 kts | 295° |
| 2026-04-26 13:55 | 4.38531 | 96.65788 | 31512 ft | 478 kts | 295° |
| 2026-04-26 13:55 | 4.41758 | 96.58731 | 32032 ft | 477 kts | 295° |
| 2026-04-26 13:56 | 4.43126 | 96.55737 | 32253 ft | 476 kts | 295° |
| 2026-04-26 13:56 | 4.44503 | 96.52718 | 32465 ft | 475 kts | 294° |
| 2026-04-26 13:56 | 4.45883 | 96.49691 | 32676 ft | 475 kts | 294° |
| 2026-04-26 13:56 | 4.47256 | 96.46675 | 32894 ft | 475 kts | 294° |
| 2026-04-26 13:57 | 4.48627 | 96.43663 | 33138 ft | 474 kts | 294° |
| 2026-04-26 13:57 | 4.49985 | 96.40677 | 33373 ft | 474 kts | 294° |
| 2026-04-26 13:57 | 4.51360 | 96.37654 | 33588 ft | 473 kts | 294° |
| 2026-04-26 13:57 | 4.52719 | 96.34667 | 33799 ft | 473 kts | 294° |
| 2026-04-26 13:58 | 4.54077 | 96.31682 | 33945 ft | 473 kts | 294° |
| 2026-04-26 13:58 | 4.56799 | 96.25693 | 33939 ft | 472 kts | 294° |
| 2026-04-26 13:59 | 4.59526 | 96.19694 | 33932 ft | 473 kts | 294° |
| 2026-04-26 13:59 | 4.62241 | 96.13721 | 33935 ft | 473 kts | 294° |
| 2026-04-26 14:00 | 4.67682 | 96.01744 | 33931 ft | 473 kts | 294° |
| 2026-04-26 14:01 | 4.70402 | 95.95756 | 33931 ft | 473 kts | 294° |
| 2026-04-26 14:01 | 4.73129 | 95.89748 | 33933 ft | 473 kts | 294° |
| 2026-04-26 14:02 | 4.75844 | 95.83768 | 33926 ft | 474 kts | 294° |
| 2026-04-26 14:02 | 4.78561 | 95.77779 | 33926 ft | 473 kts | 294° |
| 2026-04-26 14:03 | 4.81285 | 95.71774 | 33926 ft | 473 kts | 294° |
| 2026-04-26 14:03 | 4.84002 | 95.65781 | 33930 ft | 474 kts | 294° |
| 2026-04-26 14:04 | 4.86728 | 95.59769 | 33930 ft | 473 kts | 294° |
| 2026-04-26 14:04 | 4.89445 | 95.53773 | 33928 ft | 473 kts | 294° |
| 2026-04-26 14:05 | 4.92163 | 95.47774 | 33914 ft | 473 kts | 294° |
| 2026-04-26 14:05 | 4.94886 | 95.41762 | 33901 ft | 473 kts | 294° |
| 2026-04-26 14:06 | 4.97598 | 95.35774 | 33893 ft | 473 kts | 294° |
| 2026-04-26 14:06 | 5.00322 | 95.29757 | 33874 ft | 473 kts | 294° |
| 2026-04-26 14:07 | 5.03028 | 95.23779 | 33856 ft | 473 kts | 294° |
| 2026-04-26 14:07 | 5.05761 | 95.17741 | 33849 ft | 472 kts | 294° |
| 2026-04-26 14:08 | 5.08472 | 95.11747 | 33845 ft | 472 kts | 294° |
| 2026-04-26 14:08 | 5.11179 | 95.05760 | 33840 ft | 472 kts | 294° |
| 2026-04-26 14:09 | 5.13894 | 94.99756 | 33837 ft | 472 kts | 294° |
| 2026-04-26 14:09 | 5.16588 | 94.93797 | 33833 ft | 472 kts | 294° |
| 2026-04-26 14:10 | 5.19297 | 94.87800 | 33833 ft | 472 kts | 294° |
| 2026-04-26 14:10 | 5.22011 | 94.81793 | 33832 ft | 472 kts | 294° |
| 2026-04-26 14:11 | 5.26059 | 94.72829 | 33832 ft | 472 kts | 294° |
| 2026-04-26 14:11 | 5.28785 | 94.66789 | 33831 ft | 471 kts | 294° |
| 2026-04-26 14:12 | 5.31489 | 94.60795 | 33832 ft | 471 kts | 294° |
| 2026-04-26 14:12 | 5.34175 | 94.54842 | 33831 ft | 471 kts | 294° |
| 2026-04-26 14:13 | 5.38227 | 94.45855 | 33832 ft | 471 kts | 294° |
| 2026-04-26 14:14 | 5.40924 | 94.39874 | 33831 ft | 470 kts | 294° |
| 2026-04-26 14:14 | 5.43609 | 94.33915 | 33832 ft | 470 kts | 294° |
| 2026-04-26 14:15 | 5.46304 | 94.27932 | 33831 ft | 471 kts | 294° |
| 2026-04-26 14:15 | 5.48984 | 94.21982 | 33831 ft | 470 kts | 294° |
| 2026-04-26 14:16 | 5.51675 | 94.16004 | 33832 ft | 470 kts | 294° |
| 2026-04-26 14:16 | 5.54371 | 94.10014 | 33831 ft | 470 kts | 294° |
| 2026-04-26 14:17 | 5.57059 | 94.04039 | 33831 ft | 470 kts | 294° |
| 2026-04-26 14:17 | 5.59750 | 93.98058 | 33832 ft | 470 kts | 294° |
| 2026-04-26 14:18 | 5.62431 | 93.92094 | 33832 ft | 469 kts | 294° |
| 2026-04-26 14:18 | 5.65094 | 93.86169 | 33831 ft | 470 kts | 294° |
| 2026-04-26 14:19 | 5.67778 | 93.80196 | 33831 ft | 470 kts | 294° |
| 2026-04-26 14:19 | 5.70462 | 93.74219 | 33832 ft | 470 kts | 294° |
| 2026-04-26 14:20 | 5.73150 | 93.68233 | 33831 ft | 470 kts | 294° |
| 2026-04-26 14:20 | 5.75837 | 93.62247 | 33832 ft | 470 kts | 294° |
| 2026-04-26 14:21 | 5.78517 | 93.56277 | 33830 ft | 470 kts | 294° |
| 2026-04-26 14:21 | 5.81194 | 93.50310 | 33831 ft | 470 kts | 294° |
| 2026-04-26 14:22 | 5.83874 | 93.44334 | 33831 ft | 470 kts | 294° |
| 2026-04-26 14:22 | 5.86565 | 93.38331 | 33831 ft | 470 kts | 294° |
| 2026-04-26 14:23 | 5.89236 | 93.32372 | 33832 ft | 470 kts | 294° |
| 2026-04-26 14:23 | 5.91918 | 93.26384 | 33832 ft | 470 kts | 294° |
| 2026-04-26 14:24 | 5.94596 | 93.20404 | 33831 ft | 470 kts | 294° |
| 2026-04-26 14:24 | 5.97265 | 93.14442 | 33832 ft | 470 kts | 294° |
| 2026-04-26 14:25 | 5.99946 | 93.08450 | 33833 ft | 471 kts | 294° |
| 2026-04-26 14:25 | 6.02660 | 93.02481 | 33832 ft | 470 kts | 295° |
| 2026-04-26 14:26 | 6.05387 | 92.96516 | 33832 ft | 470 kts | 295° |
| 2026-04-26 14:26 | 6.08108 | 92.90555 | 33830 ft | 471 kts | 295° |
| 2026-04-26 14:27 | 6.10831 | 92.84582 | 33827 ft | 471 kts | 294° |
| 2026-04-26 14:27 | 6.13551 | 92.78611 | 33829 ft | 471 kts | 294° |
| 2026-04-26 14:28 | 6.16290 | 92.72598 | 33831 ft | 471 kts | 294° |
| 2026-04-26 14:28 | 6.18994 | 92.66657 | 33827 ft | 471 kts | 294° |
| 2026-04-26 14:29 | 6.21732 | 92.60641 | 33832 ft | 471 kts | 294° |
| 2026-04-26 14:29 | 6.24450 | 92.54666 | 33827 ft | 471 kts | 294° |
| 2026-04-26 14:30 | 6.27153 | 92.48721 | 33830 ft | 471 kts | 294° |
| 2026-04-26 14:30 | 6.29877 | 92.42730 | 33831 ft | 471 kts | 294° |
| 2026-04-26 14:31 | 6.32595 | 92.36749 | 33830 ft | 471 kts | 294° |
| 2026-04-26 14:31 | 6.35303 | 92.30786 | 33827 ft | 471 kts | 294° |
| 2026-04-26 14:32 | 6.38023 | 92.24798 | 33830 ft | 471 kts | 294° |
| 2026-04-26 14:32 | 6.40737 | 92.18820 | 33829 ft | 471 kts | 294° |
| 2026-04-26 14:33 | 6.43455 | 92.12830 | 33832 ft | 470 kts | 294° |
| 2026-04-26 14:33 | 6.46155 | 92.06879 | 33827 ft | 470 kts | 294° |
| 2026-04-26 14:34 | 6.48875 | 92.00879 | 33830 ft | 470 kts | 294° |
| 2026-04-26 14:34 | 6.51576 | 91.94920 | 33832 ft | 470 kts | 294° |
| 2026-04-26 14:35 | 6.54289 | 91.88934 | 33833 ft | 470 kts | 294° |
| 2026-04-26 14:35 | 6.56991 | 91.82968 | 33832 ft | 471 kts | 294° |
| 2026-04-26 14:36 | 6.59704 | 91.76975 | 33830 ft | 470 kts | 294° |
| 2026-04-26 14:36 | 6.62417 | 91.70982 | 33834 ft | 470 kts | 294° |
| 2026-04-26 14:37 | 6.65127 | 91.64992 | 33831 ft | 471 kts | 294° |
| 2026-04-26 14:37 | 6.67830 | 91.59014 | 33833 ft | 471 kts | 294° |
| 2026-04-26 14:38 | 6.70533 | 91.53036 | 33831 ft | 470 kts | 294° |
| 2026-04-26 14:38 | 6.73226 | 91.47076 | 33831 ft | 470 kts | 294° |
| 2026-04-26 14:39 | 6.75937 | 91.41076 | 33833 ft | 471 kts | 294° |
| 2026-04-26 14:39 | 6.78653 | 91.35060 | 33832 ft | 471 kts | 294° |
| 2026-04-26 14:40 | 6.81352 | 91.29081 | 33831 ft | 471 kts | 294° |
| 2026-04-26 14:40 | 6.84057 | 91.23086 | 33831 ft | 471 kts | 294° |
| 2026-04-26 14:41 | 6.86763 | 91.17087 | 33832 ft | 471 kts | 294° |
| 2026-04-26 14:41 | 6.89477 | 91.11067 | 33831 ft | 471 kts | 294° |
| 2026-04-26 14:42 | 6.92183 | 91.05065 | 33832 ft | 471 kts | 294° |
| 2026-04-26 14:42 | 6.94899 | 90.99036 | 33830 ft | 471 kts | 294° |
| 2026-04-26 14:43 | 6.97601 | 90.93037 | 33830 ft | 471 kts | 294° |
| 2026-04-26 14:43 | 7.00309 | 90.87021 | 33829 ft | 471 kts | 294° |
| 2026-04-26 14:44 | 7.03009 | 90.81020 | 33829 ft | 471 kts | 294° |
| 2026-04-26 14:44 | 7.05709 | 90.75019 | 33826 ft | 471 kts | 294° |
| 2026-04-26 14:45 | 7.08408 | 90.69014 | 33831 ft | 471 kts | 294° |
| 2026-04-26 14:45 | 7.11116 | 90.62991 | 33825 ft | 471 kts | 294° |
| 2026-04-26 14:46 | 7.13799 | 90.57017 | 33830 ft | 470 kts | 294° |
| 2026-04-26 14:46 | 7.16493 | 90.51019 | 33830 ft | 470 kts | 294° |
| 2026-04-26 14:47 | 7.19186 | 90.45019 | 33829 ft | 470 kts | 294° |
| 2026-04-26 14:47 | 7.21875 | 90.39026 | 33828 ft | 470 kts | 293° |
| 2026-04-26 14:48 | 7.24568 | 90.33021 | 33828 ft | 470 kts | 293° |
| 2026-04-26 14:48 | 7.27243 | 90.27055 | 33829 ft | 470 kts | 293° |
| 2026-04-26 14:49 | 7.29927 | 90.21066 | 33831 ft | 470 kts | 293° |
| 2026-04-26 14:49 | 7.32623 | 90.15046 | 33833 ft | 470 kts | 293° |
| 2026-04-26 14:50 | 7.35302 | 90.09064 | 33828 ft | 469 kts | 293° |
| 2026-04-26 14:50 | 7.37974 | 90.03095 | 33833 ft | 469 kts | 293° |
| 2026-04-26 14:51 | 7.40644 | 89.97126 | 33830 ft | 469 kts | 293° |
| 2026-04-26 14:51 | 7.43331 | 89.91117 | 33832 ft | 469 kts | 293° |
| 2026-04-26 14:52 | 7.46005 | 89.85134 | 33831 ft | 469 kts | 293° |